createdAt,value
2019-02-02T16:51:25.709Z,26.20
2019-02-02T16:53:51.648Z,26.07
2019-02-02T16:56:17.397Z,26.22
2019-02-02T16:58:43.242Z,26.37
2019-02-02T17:25:57.695Z,27.76
2019-02-02T17:28:24.024Z,27.12
2019-02-02T17:30:50.324Z,26.39
2019-02-02T17:33:16.666Z,26.08
2019-02-02T17:35:43.670Z,26.51
2019-02-02T17:38:10.314Z,26.66
2019-02-02T17:40:36.563Z,26.72
2019-02-02T17:43:02.916Z,26.77
2019-02-02T17:45:29.225Z,26.74
2019-02-02T17:47:55.366Z,26.73
2019-02-02T17:50:22.461Z,26.74
2019-02-02T17:52:48.748Z,26.75
2019-02-02T17:55:15.199Z,26.76
2019-02-02T17:57:41.535Z,26.78
2019-02-02T18:00:15.765Z,26.74
2019-02-02T18:02:42.051Z,26.77
2019-02-02T18:05:08.457Z,26.71
2019-02-02T18:07:34.715Z,26.71
2019-02-02T18:10:01.041Z,26.77
2019-02-02T18:12:27.268Z,26.77
2019-02-02T18:14:53.595Z,26.76
2019-02-02T18:17:19.935Z,26.72
2019-02-02T18:19:46.244Z,26.70
2019-02-02T18:22:12.392Z,26.68
2019-02-02T18:24:38.517Z,26.66
2019-02-02T18:27:04.864Z,26.68
2019-02-02T18:29:31.155Z,26.70
2019-02-02T18:31:57.274Z,26.68
2019-02-02T18:34:23.427Z,26.63
2019-02-02T18:36:49.736Z,26.63
2019-02-02T18:39:15.904Z,26.63
2019-02-02T18:41:42.187Z,26.58
2019-02-02T18:44:08.552Z,26.58
2019-02-02T18:46:34.839Z,26.66
2019-02-02T18:49:01.106Z,26.61
2019-02-02T18:51:27.408Z,26.56
2019-02-02T18:53:53.592Z,26.55
2019-02-02T18:56:19.859Z,26.82
2019-02-02T19:00:37.135Z,27.13
2019-02-02T19:03:04.939Z,27.17
2019-02-02T19:05:31.299Z,27.23
2019-02-02T19:07:57.743Z,27.28
2019-02-02T19:10:26.988Z,27.33
2019-02-02T19:12:53.379Z,27.35
2019-02-02T19:15:19.792Z,27.37
2019-02-02T19:17:46.135Z,27.38
2019-02-02T19:20:14.662Z,27.38
2019-02-02T19:22:41.032Z,27.39
2019-02-02T19:25:07.596Z,27.39
2019-02-02T19:27:33.996Z,27.40
2019-02-02T19:30:00.451Z,27.38
2019-02-02T19:32:26.871Z,27.39
2019-02-02T19:34:53.314Z,27.38
2019-02-02T19:37:21.167Z,27.37
2019-02-02T19:39:47.528Z,27.36
2019-02-02T19:42:13.919Z,27.34
2019-02-02T19:44:40.171Z,27.34
2019-02-02T19:47:15.749Z,27.33
2019-02-02T19:49:34.885Z,27.32
2019-02-02T19:52:01.291Z,27.32
2019-02-02T19:54:27.747Z,27.30
2019-02-02T19:56:54.156Z,27.29
2019-02-02T19:59:20.409Z,27.28
2019-02-02T20:01:46.815Z,27.27
2019-02-02T20:04:13.066Z,27.25
2019-02-02T20:06:39.475Z,27.25
2019-02-02T20:09:06.884Z,27.25
2019-02-02T20:11:33.260Z,27.23
2019-02-02T20:13:59.510Z,27.22
2019-02-02T20:16:25.923Z,27.21
2019-02-02T20:18:52.263Z,27.21
2019-02-02T20:21:18.686Z,27.19
2019-02-02T20:23:45.035Z,27.18
2019-02-02T20:26:11.449Z,27.17
2019-02-02T20:28:37.707Z,27.16
2019-02-02T20:31:04.254Z,27.15
2019-02-02T20:33:30.667Z,27.14
2019-02-02T20:35:57.081Z,27.13
2019-02-02T20:38:23.451Z,27.13
2019-02-02T20:40:49.839Z,27.11
2019-02-02T20:43:16.075Z,27.11
2019-02-02T20:45:42.527Z,27.09
2019-02-02T20:48:08.935Z,27.08
2019-02-02T20:50:35.593Z,27.07
2019-02-02T20:53:02.099Z,27.07
2019-02-02T20:55:33.851Z,27.06
2019-02-02T20:58:00.219Z,27.05
2019-02-02T21:00:26.890Z,27.03
2019-02-02T21:02:53.258Z,27.01
2019-02-02T21:05:19.716Z,27.01
2019-02-02T21:07:46.229Z,27.00
2019-02-02T21:10:15.036Z,26.98
2019-02-02T21:12:41.459Z,26.98
2019-02-02T21:15:08.992Z,26.96
2019-02-02T21:17:35.339Z,26.96
2019-02-02T21:20:01.959Z,26.95
2019-02-02T21:22:28.316Z,26.95
2019-02-02T21:24:54.773Z,26.93
2019-02-02T21:27:21.481Z,26.94
2019-02-02T21:29:47.731Z,26.92
2019-02-02T21:32:14.041Z,26.92
2019-02-02T21:34:40.394Z,26.91
2019-02-02T21:37:06.899Z,26.91
2019-02-02T21:39:33.167Z,26.90
2019-02-02T21:41:59.566Z,26.90
2019-02-02T21:44:26.326Z,26.89
2019-02-02T21:46:52.737Z,26.89
2019-02-02T21:49:19.067Z,26.89
2019-02-02T21:51:45.530Z,26.88
2019-02-02T21:54:12.140Z,26.88
2019-02-02T21:56:38.595Z,26.87
2019-02-02T21:59:04.999Z,26.86
2019-02-02T22:01:31.659Z,26.86
2019-02-02T22:03:58.069Z,26.85
2019-02-02T22:06:24.316Z,26.84
2019-02-02T22:08:50.735Z,26.83
2019-02-02T22:11:17.188Z,26.83
2019-02-02T22:13:43.598Z,26.82
2019-02-02T22:16:10.042Z,26.81
2019-02-02T22:18:36.667Z,26.81
2019-02-02T22:21:03.119Z,26.80
2019-02-02T22:23:29.536Z,26.80
2019-02-02T22:25:56.138Z,26.79
2019-02-02T22:28:22.599Z,26.79
2019-02-02T22:30:48.955Z,26.77
2019-02-02T22:33:15.359Z,26.78
2019-02-02T22:35:41.715Z,26.78
2019-02-02T22:38:08.128Z,26.77
2019-02-02T22:40:34.723Z,26.76
2019-02-02T22:43:01.198Z,26.76
2019-02-02T22:45:27.548Z,26.75
2019-02-02T22:47:53.959Z,26.74
2019-02-02T22:50:22.016Z,26.74
2019-02-02T22:52:48.368Z,26.75
2019-02-02T22:55:15.594Z,26.72
2019-02-02T22:57:42.047Z,26.73
2019-02-02T23:00:20.233Z,26.73
2019-02-02T23:02:46.587Z,26.71
2019-02-02T23:05:35.326Z,26.71
2019-02-02T23:08:20.883Z,26.71
2019-02-02T23:11:39.799Z,26.68
2019-02-02T23:14:40.770Z,26.64
2019-02-02T23:17:07.487Z,26.60
2019-02-02T23:19:33.903Z,26.56
2019-02-02T23:22:00.468Z,26.57
2019-02-02T23:24:26.868Z,26.59
2019-02-02T23:26:53.329Z,26.60
2019-02-02T23:29:19.732Z,26.61
2019-02-02T23:31:46.180Z,26.62
2019-02-02T23:34:12.594Z,26.62
2019-02-02T23:36:50.548Z,26.62
2019-02-02T23:39:07.651Z,26.63
2019-02-02T23:41:34.471Z,26.62
2019-02-02T23:44:00.887Z,26.62
2019-02-02T23:46:27.335Z,26.62
2019-02-02T23:48:53.858Z,26.62
2019-02-02T23:51:20.307Z,26.62
2019-02-02T23:53:46.617Z,26.62
2019-02-02T23:56:12.962Z,26.61
2019-02-02T23:58:39.791Z,26.62
